sensor_id;sensor_type;location;lat;lon;timestamp;pressure;altitude;pressure_sealevel;temperature;humidity
8705;BME280;4389;41.932;25.904;2024-03-02T00:00:19;-16281.47;;;8.00;100.00
8705;BME280;4389;41.932;25.904;2024-03-02T00:02:47;-16280.53;;;7.97;100.00
8705;BME280;4389;41.932;25.904;2024-03-02T00:05:17;-16281.88;;;8.02;100.00
8705;BME280;4389;41.932;25.904;2024-03-02T00:07:46;-16282.41;;;8.04;100.00
8705;BME280;4389;41.932;25.904;2024-03-02T00:10:16;-16282.94;;;8.06;100.00
8705;BME280;4389;41.932;25.904;2024-03-02T00:12:47;-16286.81;;;8.20;100.00
8705;BME280;4389;41.932;25.904;2024-03-02T00:15:33;-16288.53;;;8.27;100.00
8705;BME280;4389;41.932;25.904;2024-03-02T00:18:06;-16293.59;;;8.46;100.00
8705;BME280;4389;41.932;25.904;2024-03-02T00:20:35;-16290.66;;;8.35;100.00
8705;BME280;4389;41.932;25.904;2024-03-02T00:23:03;-16294.53;;;8.49;100.00
8705;BME280;4389;41.932;25.904;2024-03-02T00:25:37;-16291.72;;;8.39;100.00
8705;BME280;4389;41.932;25.904;2024-03-02T00:28:05;-16291.47;;;8.38;100.00
8705;BME280;4389;41.932;25.904;2024-03-02T00:30:51;-16291.47;;;8.38;100.00
8705;BME280;4389;41.932;25.904;2024-03-02T00:33:19;-16289.22;;;8.29;100.00
8705;BME280;4389;41.932;25.904;2024-03-02T00:35:49;-16286.41;;;8.19;100.00
8705;BME280;4389;41.932;25.904;2024-03-02T00:38:16;-16288.53;;;8.27;100.00
8705;BME280;4389;41.932;25.904;2024-03-02T00:40:43;-16285.22;;;8.14;100.00
8705;BME280;4389;41.932;25.904;2024-03-02T00:46:04;-16280.53;;;7.97;100.00
8705;BME280;4389;41.932;25.904;2024-03-02T00:48:31;-16279.22;;;7.92;100.00
8705;BME280;4389;41.932;25.904;2024-03-02T00:51:03;-16278.16;;;7.88;100.00
8705;BME280;4389;41.932;25.904;2024-03-02T00:53:31;-16281.34;;;8.00;100.00
8705;BME280;4389;41.932;25.904;2024-03-02T00:55:58;-16281.06;;;7.99;100.00
8705;BME280;4389;41.932;25.904;2024-03-02T00:58:25;-16281.06;;;7.99;100.00
8705;BME280;4389;41.932;25.904;2024-03-02T01:00:52;-16282.81;;;8.05;100.00
8705;BME280;4389;41.932;25.904;2024-03-02T01:03:19;-16278.81;;;7.90;100.00
8705;BME280;4389;41.932;25.904;2024-03-02T01:05:46;-16277.63;;;7.86;100.00
8705;BME280;4389;41.932;25.904;2024-03-02T01:08:14;-16276.69;;;7.82;100.00
8705;BME280;4389;41.932;25.904;2024-03-02T01:10:41;-16278.28;;;7.88;100.00
8705;BME280;4389;41.932;25.904;2024-03-02T01:13:08;-16276.56;;;7.82;100.00
8705;BME280;4389;41.932;25.904;2024-03-02T01:15:35;-16276.94;;;7.83;100.00
8705;BME280;4389;41.932;25.904;2024-03-02T01:18:02;-16278.16;;;7.88;100.00
8705;BME280;4389;41.932;25.904;2024-03-02T01:20:29;-16280.53;;;7.97;100.00
8705;BME280;4389;41.932;25.904;2024-03-02T01:22:56;-16281.47;;;8.00;100.00
8705;BME280;4389;41.932;25.904;2024-03-02T01:25:24;-16286.13;;;8.18;100.00
8705;BME280;4389;41.932;25.904;2024-03-02T01:27:51;-16288.16;;;8.25;100.00
8705;BME280;4389;41.932;25.904;2024-03-02T01:30:18;-16288.81;;;8.28;100.00
8705;BME280;4389;41.932;25.904;2024-03-02T01:32:45;-16290.13;;;8.33;100.00
8705;BME280;4389;41.932;25.904;2024-03-02T01:35:12;-16292.25;;;8.41;100.00
8705;BME280;4389;41.932;25.904;2024-03-02T01:37:40;-16290.66;;;8.35;100.00
8705;BME280;4389;41.932;25.904;2024-03-02T01:40:08;-16290.13;;;8.33;100.00
8705;BME280;4389;41.932;25.904;2024-03-02T01:42:37;-16291.19;;;8.37;100.00
8705;BME280;4389;41.932;25.904;2024-03-02T01:45:06;-16292.00;;;8.40;100.00
8705;BME280;4389;41.932;25.904;2024-03-02T01:47:33;-16294.41;;;8.49;100.00
8705;BME280;4389;41.932;25.904;2024-03-02T01:50:00;-16294.53;;;8.49;100.00
8705;BME280;4389;41.932;25.904;2024-03-02T01:52:27;-16293.06;;;8.44;100.00
8705;BME280;4389;41.932;25.904;2024-03-02T01:54:55;-16294.94;;;8.51;100.00
8705;BME280;4389;41.932;25.904;2024-03-02T01:57:22;-16295.47;;;8.53;100.00
8705;BME280;4389;41.932;25.904;2024-03-02T01:59:50;-16301.59;;;8.76;100.00
8705;BME280;4389;41.932;25.904;2024-03-02T02:02:18;-16297.84;;;8.62;100.00
8705;BME280;4389;41.932;25.904;2024-03-02T02:04:45;-16299.47;;;8.68;100.00
8705;BME280;4389;41.932;25.904;2024-03-02T02:07:12;-16297.59;;;8.61;100.00
8705;BME280;4389;41.932;25.904;2024-03-02T02:09:40;-16298.13;;;8.63;100.00
8705;BME280;4389;41.932;25.904;2024-03-02T02:12:07;-16298.66;;;8.65;100.00
8705;BME280;4389;41.932;25.904;2024-03-02T02:14:35;-16299.47;;;8.68;100.00
8705;BME280;4389;41.932;25.904;2024-03-02T02:17:03;-16300.38;;;8.71;100.00
8705;BME280;4389;41.932;25.904;2024-03-02T02:19:30;-16299.72;;;8.69;100.00
8705;BME280;4389;41.932;25.904;2024-03-02T02:21:58;-16300.13;;;8.70;100.00
8705;BME280;4389;41.932;25.904;2024-03-02T02:24:25;-16297.59;;;8.61;100.00
8705;BME280;4389;41.932;25.904;2024-03-02T02:26:52;-16296.00;;;8.55;100.00
8705;BME280;4389;41.932;25.904;2024-03-02T02:29:18;-16296.78;;;8.58;100.00
8705;BME280;4389;41.932;25.904;2024-03-02T02:31:45;-16298.13;;;8.63;100.00
8705;BME280;4389;41.932;25.904;2024-03-02T02:34:14;-16296.53;;;8.57;100.00
8705;BME280;4389;41.932;25.904;2024-03-02T02:36:41;-16297.72;;;8.61;100.00
8705;BME280;4389;41.932;25.904;2024-03-02T02:39:13;-16297.31;;;8.60;100.00
8705;BME280;4389;41.932;25.904;2024-03-02T02:41:42;-16297.31;;;8.60;100.00
8705;BME280;4389;41.932;25.904;2024-03-02T02:44:09;-16300.25;;;8.71;100.00
8705;BME280;4389;41.932;25.904;2024-03-02T02:46:38;-16299.84;;;8.69;100.00
8705;BME280;4389;41.932;25.904;2024-03-02T02:49:05;-16298.13;;;8.63;100.00
8705;BME280;4389;41.932;25.904;2024-03-02T02:51:32;-16297.06;;;8.59;100.00
8705;BME280;4389;41.932;25.904;2024-03-02T02:53:59;-16297.59;;;8.61;100.00
8705;BME280;4389;41.932;25.904;2024-03-02T02:56:27;-16297.59;;;8.61;100.00
8705;BME280;4389;41.932;25.904;2024-03-02T02:58:54;-16297.06;;;8.59;100.00
8705;BME280;4389;41.932;25.904;2024-03-02T03:01:21;-16297.06;;;8.59;100.00
8705;BME280;4389;41.932;25.904;2024-03-02T03:03:47;-16298.41;;;8.64;100.00
8705;BME280;4389;41.932;25.904;2024-03-02T03:06:14;-16300.38;;;8.71;100.00
8705;BME280;4389;41.932;25.904;2024-03-02T03:08:40;-16302.38;;;8.79;100.00
8705;BME280;4389;41.932;25.904;2024-03-02T03:11:07;-16303.97;;;8.85;100.00
8705;BME280;4389;41.932;25.904;2024-03-02T03:13:35;-16301.47;;;8.75;100.00
8705;BME280;4389;41.932;25.904;2024-03-02T03:16:03;-16301.31;;;8.75;100.00
8705;BME280;4389;41.932;25.904;2024-03-02T03:18:31;-16304.78;;;8.88;100.00
8705;BME280;4389;41.932;25.904;2024-03-02T03:20:57;-16303.19;;;8.82;100.00
8705;BME280;4389;41.932;25.904;2024-03-02T03:23:24;-16301.59;;;8.76;100.00
8705;BME280;4389;41.932;25.904;2024-03-02T03:25:51;-16301.06;;;8.74;100.00
8705;BME280;4389;41.932;25.904;2024-03-02T03:28:18;-16302.66;;;8.80;100.00
8705;BME280;4389;41.932;25.904;2024-03-02T03:30:46;-16304.50;;;8.87;100.00
8705;BME280;4389;41.932;25.904;2024-03-02T03:33:13;-16304.50;;;8.87;100.00
8705;BME280;4389;41.932;25.904;2024-03-02T03:35:40;-16306.91;;;8.95;100.00
8705;BME280;4389;41.932;25.904;2024-03-02T03:38:07;-16301.31;;;8.75;100.00
8705;BME280;4389;41.932;25.904;2024-03-02T03:40:33;-16300.53;;;8.72;100.00
8705;BME280;4389;41.932;25.904;2024-03-02T03:43:00;-16302.91;;;8.81;100.00
8705;BME280;4389;41.932;25.904;2024-03-02T03:45:27;-16300.53;;;8.72;100.00
8705;BME280;4389;41.932;25.904;2024-03-02T03:47:57;-16300.00;;;8.70;100.00
8705;BME280;4389;41.932;25.904;2024-03-02T03:50:24;-16301.47;;;8.75;100.00
8705;BME280;4389;41.932;25.904;2024-03-02T03:52:50;-16303.19;;;8.82;100.00
8705;BME280;4389;41.932;25.904;2024-03-02T03:55:17;-16306.78;;;8.95;100.00
8705;BME280;4389;41.932;25.904;2024-03-02T03:57:44;-16307.44;;;8.97;100.00
8705;BME280;4389;41.932;25.904;2024-03-02T04:00:12;-16308.25;;;9.00;100.00
8705;BME280;4389;41.932;25.904;2024-03-02T04:02:39;-16307.19;;;8.96;100.00
8705;BME280;4389;41.932;25.904;2024-03-02T04:05:07;-16307.72;;;8.98;100.00
8705;BME280;4389;41.932;25.904;2024-03-02T04:07:36;-16304.78;;;8.88;100.00
8705;BME280;4389;41.932;25.904;2024-03-02T04:10:07;-16305.44;;;8.90;100.00
8705;BME280;4389;41.932;25.904;2024-03-02T04:12:35;-16305.31;;;8.89;100.00
8705;BME280;4389;41.932;25.904;2024-03-02T04:15:04;-16307.97;;;8.99;100.00
8705;BME280;4389;41.932;25.904;2024-03-02T04:17:32;-16310.09;;;9.07;100.00
8705;BME280;4389;41.932;25.904;2024-03-02T04:20:01;-16306.78;;;8.95;100.00
8705;BME280;4389;41.932;25.904;2024-03-02T04:22:33;-16307.44;;;8.97;100.00
8705;BME280;4389;41.932;25.904;2024-03-02T04:25:01;-16309.31;;;9.04;100.00
8705;BME280;4389;41.932;25.904;2024-03-02T04:27:30;-16312.91;;;9.18;100.00
8705;BME280;4389;41.932;25.904;2024-03-02T04:29:58;-16315.69;;;9.28;100.00
8705;BME280;4389;41.932;25.904;2024-03-02T04:32:25;-16315.44;;;9.27;100.00
8705;BME280;4389;41.932;25.904;2024-03-02T04:34:52;-16313.28;;;9.19;100.00
8705;BME280;4389;41.932;25.904;2024-03-02T04:37:19;-16311.31;;;9.12;100.00
8705;BME280;4389;41.932;25.904;2024-03-02T04:39:47;-16314.75;;;9.25;100.00
8705;BME280;4389;41.932;25.904;2024-03-02T04:42:14;-16311.97;;;9.14;100.00
8705;BME280;4389;41.932;25.904;2024-03-02T04:44:40;-16315.16;;;9.26;100.00
8705;BME280;4389;41.932;25.904;2024-03-02T04:47:07;-16317.28;;;9.34;100.00
8705;BME280;4389;41.932;25.904;2024-03-02T04:49:34;-16319.41;;;9.42;100.00
8705;BME280;4389;41.932;25.904;2024-03-02T04:52:01;-16318.63;;;9.39;100.00
8705;BME280;4389;41.932;25.904;2024-03-02T04:54:28;-16315.44;;;9.27;100.00
8705;BME280;4389;41.932;25.904;2024-03-02T04:56:56;-16314.38;;;9.23;100.00
8705;BME280;4389;41.932;25.904;2024-03-02T04:59:23;-16315.28;;;9.27;100.00
8705;BME280;4389;41.932;25.904;2024-03-02T05:01:49;-16315.44;;;9.27;100.00
8705;BME280;4389;41.932;25.904;2024-03-02T05:04:16;-16317.69;;;9.36;100.00
8705;BME280;4389;41.932;25.904;2024-03-02T05:06:43;-16319.41;;;9.42;100.00
8705;BME280;4389;41.932;25.904;2024-03-02T05:09:16;-16319.94;;;9.44;100.00
8705;BME280;4389;41.932;25.904;2024-03-02T05:11:43;-16319.41;;;9.42;100.00
8705;BME280;4389;41.932;25.904;2024-03-02T05:14:36;-16323.41;;;9.57;100.00
8705;BME280;4389;41.932;25.904;2024-03-02T05:17:04;-16322.88;;;9.55;100.00
8705;BME280;4389;41.932;25.904;2024-03-02T05:19:30;-16323.16;;;9.56;100.00
8705;BME280;4389;41.932;25.904;2024-03-02T05:21:57;-16325.00;;;9.63;100.00
8705;BME280;4389;41.932;25.904;2024-03-02T05:24:24;-16327.41;;;9.72;100.00
8705;BME280;4389;41.932;25.904;2024-03-02T05:26:53;-16327.53;;;9.73;100.00
8705;BME280;4389;41.932;25.904;2024-03-02T05:29:20;-16329.53;;;9.80;100.00
8705;BME280;4389;41.932;25.904;2024-03-02T05:31:48;-16326.88;;;9.70;100.00
8705;BME280;4389;41.932;25.904;2024-03-02T05:34:15;-16328.72;;;9.77;100.00
8705;BME280;4389;41.932;25.904;2024-03-02T05:36:42;-16325.81;;;9.66;100.00
8705;BME280;4389;41.932;25.904;2024-03-02T05:39:08;-16324.22;;;9.60;100.00
8705;BME280;4389;41.932;25.904;2024-03-02T05:41:35;-16326.34;;;9.68;100.00
8705;BME280;4389;41.932;25.904;2024-03-02T05:44:04;-16326.06;;;9.67;100.00
8705;BME280;4389;41.932;25.904;2024-03-02T05:46:31;-16326.34;;;9.68;100.00
8705;BME280;4389;41.932;25.904;2024-03-02T05:49:00;-16327.94;;;9.74;100.00
8705;BME280;4389;41.932;25.904;2024-03-02T05:51:27;-16326.88;;;9.70;100.00
8705;BME280;4389;41.932;25.904;2024-03-02T05:53:53;-16328.72;;;9.77;100.00
8705;BME280;4389;41.932;25.904;2024-03-02T05:56:20;-16329.53;;;9.80;100.00
8705;BME280;4389;41.932;25.904;2024-03-02T05:58:47;-16328.47;;;9.76;100.00
8705;BME280;4389;41.932;25.904;2024-03-02T06:01:26;-16331.94;;;9.89;100.00
8705;BME280;4389;41.932;25.904;2024-03-02T06:03:55;-16330.59;;;9.84;100.00
8705;BME280;4389;41.932;25.904;2024-03-02T06:06:23;-16330.06;;;9.82;100.00
8705;BME280;4389;41.932;25.904;2024-03-02T06:08:50;-16330.59;;;9.84;100.00
8705;BME280;4389;41.932;25.904;2024-03-02T06:11:17;-16331.53;;;9.88;100.00
8705;BME280;4389;41.932;25.904;2024-03-02T06:13:45;-16331.94;;;9.89;100.00
8705;BME280;4389;41.932;25.904;2024-03-02T06:16:12;-16335.53;;;10.03;100.00
8705;BME280;4389;41.932;25.904;2024-03-02T06:18:39;-16335.38;;;10.02;100.00
8705;BME280;4389;41.932;25.904;2024-03-02T06:21:06;-16336.19;;;10.05;100.00
8705;BME280;4389;41.932;25.904;2024-03-02T06:23:34;-16337.25;;;10.09;100.00
8705;BME280;4389;41.932;25.904;2024-03-02T06:26:02;-16339.91;;;10.19;100.00
8705;BME280;4389;41.932;25.904;2024-03-02T06:28:31;-16336.19;;;10.05;100.00
8705;BME280;4389;41.932;25.904;2024-03-02T06:30:58;-16337.25;;;10.09;100.00
8705;BME280;4389;41.932;25.904;2024-03-02T06:33:25;-16342.16;;;10.28;100.00
8705;BME280;4389;41.932;25.904;2024-03-02T06:35:52;-16342.97;;;10.31;100.00
8705;BME280;4389;41.932;25.904;2024-03-02T06:38:19;-16342.56;;;10.29;100.00
8705;BME280;4389;41.932;25.904;2024-03-02T06:40:47;-16345.22;;;10.39;100.00
8705;BME280;4389;41.932;25.904;2024-03-02T06:43:14;-16346.81;;;10.45;100.00
8705;BME280;4389;41.932;25.904;2024-03-02T06:45:41;-16347.50;;;10.48;100.00
8705;BME280;4389;41.932;25.904;2024-03-02T06:48:07;-16347.22;;;10.47;100.00
8705;BME280;4389;41.932;25.904;2024-03-02T06:50:34;-16344.97;;;10.38;100.00
8705;BME280;4389;41.932;25.904;2024-03-02T06:53:01;-16343.63;;;10.33;100.00
8705;BME280;4389;41.932;25.904;2024-03-02T06:55:29;-16345.38;;;10.40;100.00
8705;BME280;4389;41.932;25.904;2024-03-02T06:57:57;-16345.78;;;10.41;100.00
8705;BME280;4389;41.932;25.904;2024-03-02T07:00:24;-16348.69;;;10.52;100.00
8705;BME280;4389;41.932;25.904;2024-03-02T07:02:51;-16347.75;;;10.49;100.00
8705;BME280;4389;41.932;25.904;2024-03-02T07:05:18;-16349.50;;;10.55;100.00
8705;BME280;4389;41.932;25.904;2024-03-02T07:07:46;-16352.00;;;10.65;100.00
8705;BME280;4389;41.932;25.904;2024-03-02T07:10:13;-16356.81;;;10.83;100.00
8705;BME280;4389;41.932;25.904;2024-03-02T07:12:40;-16360.66;;;10.97;100.00
8705;BME280;4389;41.932;25.904;2024-03-02T07:15:09;-16356.81;;;10.83;100.00
8705;BME280;4389;41.932;25.904;2024-03-02T07:17:54;-16359.47;;;10.93;100.00
8705;BME280;4389;41.932;25.904;2024-03-02T07:20:21;-16361.72;;;11.01;100.00
8705;BME280;4389;41.932;25.904;2024-03-02T07:22:48;-16369.44;;;11.30;100.00
8705;BME280;4389;41.932;25.904;2024-03-02T07:25:15;-16376.34;;;11.56;100.00
8705;BME280;4389;41.932;25.904;2024-03-02T07:27:41;-16380.47;;;11.72;100.00
8705;BME280;4389;41.932;25.904;2024-03-02T07:30:13;-16382.06;;;11.78;100.00
8705;BME280;4389;41.932;25.904;2024-03-02T07:32:41;-16386.44;;;11.94;100.00
8705;BME280;4389;41.932;25.904;2024-03-02T07:35:11;-16384.06;;;11.85;100.00
8705;BME280;4389;41.932;25.904;2024-03-02T07:37:39;-16392.31;;;12.16;100.00
8705;BME280;4389;41.932;25.904;2024-03-02T07:40:06;-16401.75;;;12.52;100.00
8705;BME280;4389;41.932;25.904;2024-03-02T07:42:37;-16399.22;;;12.42;100.00
8705;BME280;4389;41.932;25.904;2024-03-02T07:45:05;-16391.91;;;12.15;100.00
8705;BME280;4389;41.932;25.904;2024-03-02T07:47:33;-16388.31;;;12.01;100.00
8705;BME280;4389;41.932;25.904;2024-03-02T07:50:00;-16404.53;;;12.62;100.00
8705;BME280;4389;41.932;25.904;2024-03-02T07:52:27;-16412.09;;;12.91;100.00
8705;BME280;4389;41.932;25.904;2024-03-02T07:54:54;-16411.69;;;12.89;100.00
8705;BME280;4389;41.932;25.904;2024-03-02T07:57:21;-16413.84;;;12.97;100.00
8705;BME280;4389;41.932;25.904;2024-03-02T07:59:48;-16419.94;;;13.20;100.00
8705;BME280;4389;41.932;25.904;2024-03-02T08:02:15;-16423.13;;;13.32;100.00
8705;BME280;4389;41.932;25.904;2024-03-02T08:04:43;-16414.50;;;13.00;100.00
8705;BME280;4389;41.932;25.904;2024-03-02T08:07:11;-16421.81;;;13.27;100.00
8705;BME280;4389;41.932;25.904;2024-03-02T08:09:38;-16425.38;;;13.41;100.00
8705;BME280;4389;41.932;25.904;2024-03-02T08:12:05;-16423.13;;;13.32;100.00
8705;BME280;4389;41.932;25.904;2024-03-02T08:14:32;-16424.19;;;13.36;100.00
8705;BME280;4389;41.932;25.904;2024-03-02T08:16:59;-16431.09;;;13.62;100.00
8705;BME280;4389;41.932;25.904;2024-03-02T08:19:27;-16435.59;;;13.79;100.00
8705;BME280;4389;41.932;25.904;2024-03-02T08:21:55;-16443.03;;;14.07;100.00
8705;BME280;4389;41.932;25.904;2024-03-02T08:24:22;-16450.47;;;14.35;98.59
8705;BME280;4389;41.932;25.904;2024-03-02T08:26:49;-16441.72;;;14.02;98.40
8705;BME280;4389;41.932;25.904;2024-03-02T08:29:16;-16431.34;;;13.63;100.00
8705;BME280;4389;41.932;25.904;2024-03-02T08:31:42;-16429.63;;;13.57;100.00
8705;BME280;4389;41.932;25.904;2024-03-02T08:34:09;-16427.25;;;13.48;100.00
8705;BME280;4389;41.932;25.904;2024-03-02T08:36:36;-16433.47;;;13.71;100.00
8705;BME280;4389;41.932;25.904;2024-03-02T08:39:05;-16438.00;;;13.88;100.00
8705;BME280;4389;41.932;25.904;2024-03-02T08:41:40;-16439.31;;;13.93;100.00
8705;BME280;4389;41.932;25.904;2024-03-02T08:44:07;-16440.91;;;13.99;100.00
8705;BME280;4389;41.932;25.904;2024-03-02T08:46:34;-16452.47;;;14.42;98.92
8705;BME280;4389;41.932;25.904;2024-03-02T08:49:02;-16451.00;;;14.37;97.40
8705;BME280;4389;41.932;25.904;2024-03-02T08:51:28;-16450.88;;;14.36;96.69
8705;BME280;4389;41.932;25.904;2024-03-02T08:53:55;-16447.28;;;14.23;97.30
8705;BME280;4389;41.932;25.904;2024-03-02T08:56:24;-16453.13;;;14.45;97.36
8705;BME280;4389;41.932;25.904;2024-03-02T08:58:51;-16466.69;;;14.96;92.98
8705;BME280;4389;41.932;25.904;2024-03-02T09:01:19;-16473.31;;;15.21;89.85
8705;BME280;4389;41.932;25.904;2024-03-02T09:03:46;-16466.94;;;14.97;90.68
8705;BME280;4389;41.932;25.904;2024-03-02T09:06:14;-16459.25;;;14.68;92.37
8705;BME280;4389;41.932;25.904;2024-03-02T09:08:42;-16461.09;;;14.75;93.12
8705;BME280;4389;41.932;25.904;2024-03-02T09:11:09;-16458.97;;;14.67;92.21
8705;BME280;4389;41.932;25.904;2024-03-02T09:13:38;-16451.28;;;14.38;95.07
8705;BME280;4389;41.932;25.904;2024-03-02T09:16:06;-16452.34;;;14.42;97.59
8705;BME280;4389;41.932;25.904;2024-03-02T09:18:36;-16454.19;;;14.49;96.41
8705;BME280;4389;41.932;25.904;2024-03-02T09:21:03;-16458.97;;;14.67;95.21
8705;BME280;4389;41.932;25.904;2024-03-02T09:23:31;-16446.25;;;14.19;97.03
8705;BME280;4389;41.932;25.904;2024-03-02T09:25:57;-16445.56;;;14.16;96.89
8705;BME280;4389;41.932;25.904;2024-03-02T09:28:24;-16428.69;;;13.53;100.00
8705;BME280;4389;41.932;25.904;2024-03-02T09:30:53;-16415.97;;;13.05;100.00
8705;BME280;4389;41.932;25.904;2024-03-02T09:33:19;-16422.19;;;13.29;100.00
8705;BME280;4389;41.932;25.904;2024-03-02T09:35:46;-16435.59;;;13.79;100.00
8705;BME280;4389;41.932;25.904;2024-03-02T09:38:14;-16439.31;;;13.93;100.00
8705;BME280;4389;41.932;25.904;2024-03-02T09:40:41;-16448.88;;;14.29;98.58
8705;BME280;4389;41.932;25.904;2024-03-02T09:43:08;-16455.66;;;14.54;96.80
8705;BME280;4389;41.932;25.904;2024-03-02T09:45:36;-16453.94;;;14.48;95.83
8705;BME280;4389;41.932;25.904;2024-03-02T09:48:05;-16461.38;;;14.76;94.49
8705;BME280;4389;41.932;25.904;2024-03-02T09:50:32;-16470.00;;;15.08;92.48
8705;BME280;4389;41.932;25.904;2024-03-02T09:52:59;-16469.59;;;15.07;91.23
8705;BME280;4389;41.932;25.904;2024-03-02T09:55:26;-16462.69;;;14.81;91.68
8705;BME280;4389;41.932;25.904;2024-03-02T09:57:53;-16452.34;;;14.42;94.68
8705;BME280;4389;41.932;25.904;2024-03-02T10:00:20;-16449.94;;;14.33;95.58
8705;BME280;4389;41.932;25.904;2024-03-02T10:02:47;-16454.72;;;14.51;95.88
8705;BME280;4389;41.932;25.904;2024-03-02T10:05:24;-16453.81;;;14.47;94.57
8705;BME280;4389;41.932;25.904;2024-03-02T10:07:59;-16455.41;;;14.53;95.73
8705;BME280;4389;41.932;25.904;2024-03-02T10:10:35;-16460.03;;;14.71;94.20
8705;BME280;4389;41.932;25.904;2024-03-02T10:13:06;-16462.69;;;14.81;93.13
8705;BME280;4389;41.932;25.904;2024-03-02T10:15:34;-16461.38;;;14.76;93.04
8705;BME280;4389;41.932;25.904;2024-03-02T10:18:03;-16453.00;;;14.44;95.23
8705;BME280;4389;41.932;25.904;2024-03-02T10:20:31;-16452.34;;;14.42;96.84
8705;BME280;4389;41.932;25.904;2024-03-02T10:23:10;-16456.06;;;14.56;97.24
8705;BME280;4389;41.932;25.904;2024-03-02T10:25:37;-16460.31;;;14.72;95.86
8705;BME280;4389;41.932;25.904;2024-03-02T10:28:04;-16460.69;;;14.73;94.64
8705;BME280;4389;41.932;25.904;2024-03-02T10:30:32;-16450.75;;;14.36;95.58
8705;BME280;4389;41.932;25.904;2024-03-02T10:33:00;-16453.13;;;14.45;96.30
8705;BME280;4389;41.932;25.904;2024-03-02T10:35:27;-16445.69;;;14.17;97.46
8705;BME280;4389;41.932;25.904;2024-03-02T10:37:55;-16450.22;;;14.34;97.69
8705;BME280;4389;41.932;25.904;2024-03-02T10:40:23;-16443.56;;;14.09;97.95
8705;BME280;4389;41.932;25.904;2024-03-02T10:42:50;-16436.66;;;13.83;99.56
8705;BME280;4389;41.932;25.904;2024-03-02T10:45:19;-16429.75;;;13.57;100.00
8705;BME280;4389;41.932;25.904;2024-03-02T10:47:47;-16426.31;;;13.44;100.00
8705;BME280;4389;41.932;25.904;2024-03-02T10:50:14;-16432.41;;;13.67;100.00
8705;BME280;4389;41.932;25.904;2024-03-02T10:52:40;-16434.41;;;13.74;100.00
8705;BME280;4389;41.932;25.904;2024-03-02T10:55:09;-16438.53;;;13.90;100.00
8705;BME280;4389;41.932;25.904;2024-03-02T10:57:41;-16427.38;;;13.48;100.00
8705;BME280;4389;41.932;25.904;2024-03-02T11:00:12;-16430.44;;;13.60;100.00
8705;BME280;4389;41.932;25.904;2024-03-02T11:02:50;-16435.88;;;13.80;100.00
8705;BME280;4389;41.932;25.904;2024-03-02T11:05:26;-16435.88;;;13.80;100.00
8705;BME280;4389;41.932;25.904;2024-03-02T11:08:00;-16423.94;;;13.35;100.00
8705;BME280;4389;41.932;25.904;2024-03-02T11:10:34;-16422.06;;;13.28;100.00
8705;BME280;4389;41.932;25.904;2024-03-02T11:13:04;-16416.88;;;13.09;100.00
8705;BME280;4389;41.932;25.904;2024-03-02T11:15:34;-16414.63;;;13.00;100.00
8705;BME280;4389;41.932;25.904;2024-03-02T11:18:04;-16415.16;;;13.02;100.00
8705;BME280;4389;41.932;25.904;2024-03-02T11:20:36;-16411.16;;;12.87;100.00
8705;BME280;4389;41.932;25.904;2024-03-02T11:23:07;-16411.84;;;12.90;100.00
8705;BME280;4389;41.932;25.904;2024-03-02T11:25:36;-16406.13;;;12.68;100.00
8705;BME280;4389;41.932;25.904;2024-03-02T11:28:05;-16406.13;;;12.68;100.00
8705;BME280;4389;41.932;25.904;2024-03-02T11:30:53;-16402.41;;;12.54;100.00
8705;BME280;4389;41.932;25.904;2024-03-02T11:33:24;-16403.34;;;12.58;100.00
8705;BME280;4389;41.932;25.904;2024-03-02T11:35:53;-16403.72;;;12.59;100.00
8705;BME280;4389;41.932;25.904;2024-03-02T11:38:20;-16398.41;;;12.39;100.00
8705;BME280;4389;41.932;25.904;2024-03-02T11:40:48;-16398.41;;;12.39;100.00
8705;BME280;4389;41.932;25.904;2024-03-02T11:43:15;-16395.22;;;12.27;100.00
8705;BME280;4389;41.932;25.904;2024-03-02T11:45:42;-16392.56;;;12.17;100.00
8705;BME280;4389;41.932;25.904;2024-03-02T11:48:14;-16392.31;;;12.16;100.00
8705;BME280;4389;41.932;25.904;2024-03-02T11:50:46;-16393.09;;;12.19;100.00
8705;BME280;4389;41.932;25.904;2024-03-02T11:53:14;-16394.44;;;12.24;100.00
8705;BME280;4389;41.932;25.904;2024-03-02T11:55:41;-16395.22;;;12.27;100.00
8705;BME280;4389;41.932;25.904;2024-03-02T11:58:13;-16397.09;;;12.34;100.00
8705;BME280;4389;41.932;25.904;2024-03-02T12:00:40;-16398.41;;;12.39;100.00
8705;BME280;4389;41.932;25.904;2024-03-02T12:03:08;-16395.63;;;12.29;100.00
8705;BME280;4389;41.932;25.904;2024-03-02T12:05:35;-16400.28;;;12.46;100.00
8705;BME280;4389;41.932;25.904;2024-03-02T12:08:04;-16392.84;;;12.18;100.00
8705;BME280;4389;41.932;25.904;2024-03-02T12:10:32;-16393.63;;;12.21;100.00
8705;BME280;4389;41.932;25.904;2024-03-02T12:13:00;-16387.25;;;11.97;100.00
8705;BME280;4389;41.932;25.904;2024-03-02T12:15:30;-16385.91;;;11.92;100.00
8705;BME280;4389;41.932;25.904;2024-03-02T12:17:58;-16382.59;;;11.80;100.00
8705;BME280;4389;41.932;25.904;2024-03-02T12:20:26;-16385.13;;;11.89;100.00
8705;BME280;4389;41.932;25.904;2024-03-02T12:22:55;-16385.91;;;11.92;100.00
8705;BME280;4389;41.932;25.904;2024-03-02T12:25:23;-16384.06;;;11.85;100.00
8705;BME280;4389;41.932;25.904;2024-03-02T12:27:53;-16385.13;;;11.89;100.00
8705;BME280;4389;41.932;25.904;2024-03-02T12:30:21;-16385.41;;;11.90;100.00
8705;BME280;4389;41.932;25.904;2024-03-02T12:32:50;-16391.25;;;12.12;100.00
8705;BME280;4389;41.932;25.904;2024-03-02T12:35:18;-16394.16;;;12.23;100.00
8705;BME280;4389;41.932;25.904;2024-03-02T12:37:45;-16391.63;;;12.14;100.00
8705;BME280;4389;41.932;25.904;2024-03-02T12:40:13;-16392.31;;;12.16;100.00
8705;BME280;4389;41.932;25.904;2024-03-02T12:42:41;-16386.31;;;11.94;100.00
8705;BME280;4389;41.932;25.904;2024-03-02T12:45:08;-16384.31;;;11.86;100.00
8705;BME280;4389;41.932;25.904;2024-03-02T12:47:36;-16383.78;;;11.84;100.00
8705;BME280;4389;41.932;25.904;2024-03-02T12:50:06;-16379.53;;;11.68;100.00
8705;BME280;4389;41.932;25.904;2024-03-02T12:52:33;-16378.22;;;11.63;100.00
8705;BME280;4389;41.932;25.904;2024-03-02T12:55:00;-16378.47;;;11.64;100.00
8705;BME280;4389;41.932;25.904;2024-03-02T12:57:30;-16380.34;;;11.71;100.00
8705;BME280;4389;41.932;25.904;2024-03-02T12:59:58;-16380.59;;;11.72;100.00
8705;BME280;4389;41.932;25.904;2024-03-02T13:02:28;-16378.88;;;11.66;100.00